Bookmark and Share
Track history (hours):
 

YM Kaohsiung

Last reported at 2014-Apr-08 08:32 UTC. Time now 2014-Apr-20 13:20 UTC.
Position N 38°12' W 128°18'.
Warning: this ship's position is 12 days out of date.

Length 260 m; draft 10.3 m.

Type: Cargo ship. MMSI: 235767000.

NotesDate/timePositionNaut miles runAvg speedWind from/ knotsBaromVisibWave heightAir tempDewpointWater temp
2014-Apr-08 08:32N 38°12' W 128°18'7116.0
2014-Apr-08 04:04N 37°34' W 127°01'2617.0
2014-Apr-08 02:33N 37°34' W 126°29'1716.9
2014-Apr-08 01:33N 37°34' W 126°07'3316.5
2014-Apr-07 23:32N 37°34' W 125°25'1616.3
2014-Apr-07 22:33N 37°34' W 125°05'1616.0
2014-Apr-07 21:33N 37°34' W 124°45'1616.3
2014-Apr-07 20:33N 37°34' W 124°24'1816.3
2014-Apr-07 19:26N 37°34' W 124°01'3016.2
2014-Apr-07 17:33N 37°34' W 123°23'1615.8
2014-Apr-07 16:33N 37°34' W 123°03'1616.4
2014-Apr-07 15:34N 37°43' W 122°46'1312.7
2014-Apr-07 14:33N 37°48' W 122°31'9 9.2
2014-Apr-07 13:33N 37°49' W 122°19'0 0.2
2014-Apr-07 12:32N 37°49' W 122°19'0 0.0
2014-Apr-07 11:32N 37°49' W 122°19'0 0.0
2014-Apr-07 10:32N 37°49' W 122°19'0 0.0
2014-Apr-07 09:32N 37°49' W 122°19'0 0.0
2014-Apr-07 08:32N 37°49' W 122°19'0 0.0
2014-Apr-07 07:32N 37°49' W 122°19'0 0.0
2014-Apr-07 06:32N 37°49' W 122°19'0 0.0
2014-Apr-07 05:32N 37°49' W 122°19'0 0.0
2014-Apr-07 04:32N 37°49' W 122°19'0 0.0
2014-Apr-07 03:32N 37°49' W 122°19'0 0.0
2014-Apr-07 02:32N 37°49' W 122°19'0 0.0
2014-Apr-07 01:32N 37°49' W 122°19'0 0.0
2014-Apr-07 00:32N 37°49' W 122°19'2 2.5
2014-Apr-06 23:34N 37°48' W 122°22'1313.1
2014-Apr-06 22:33N 37°46' W 122°38'9 8.6
2014-Apr-06 21:33N 37°40' W 122°47'10 9.9
2014-Apr-06 20:33N 37°35' W 122°57'1111.0
2014-Apr-06 19:33N 37°25' W 123°03'1413.9
2014-Apr-06 18:33N 37°11' W 123°03'1110.7
2014-Apr-06 17:34N 37°01' W 122°59'1414.4
2014-Apr-06 16:34N 36°48' W 122°51'1514.5
2014-Apr-06 15:32N 36°34' W 122°43'1414.4
2014-Apr-06 14:33N 36°22' W 122°35'1414.5
2014-Apr-06 13:34N 36°09' W 122°28'1414.3
2014-Apr-06 12:33N 35°56' W 122°20'1414.5
2014-Apr-06 11:33N 35°43' W 122°12'1514.6
2014-Apr-06 10:33N 35°30' W 122°04'1414.5
2014-Apr-06 09:34N 35°17' W 121°56'1514.8
2014-Apr-06 08:34N 35°04' W 121°48'1515.0
2014-Apr-06 07:33N 34°50' W 121°41'1614.9
2014-Apr-06 06:28N 34°36' W 121°31'1314.8
2014-Apr-06 05:33N 34°24' W 121°24'1814.6
2014-Apr-06 04:20N 34°08' W 121°15'1114.7
2014-Apr-06 03:33N 33°58' W 121°07'14413.1
2014-Apr-05 16:33N 33°13' W 118°23'1211.7
2014-Apr-05 15:34N 33°19' W 118°11'10 9.9
2014-Apr-05 14:33N 33°28' W 118°10'18 1.1
2014-Apr-04 21:32N 33°46' W 118°17'0 0.0
2014-Apr-04 09:32N 33°46' W 118°17'0 0.0
2014-Apr-04 08:32N 33°46' W 118°17'0 0.0
2014-Apr-04 07:11N 33°46' W 118°17'0 0.0
2014-Apr-04 06:29N 33°46' W 118°17'0 0.0
2014-Apr-04 04:32N 33°46' W 118°17'0 0.0
2014-Apr-04 03:29N 33°46' W 118°17'0 0.0
2014-Apr-04 02:23N 33°46' W 118°17'0 0.0
2014-Apr-04 01:29N 33°46' W 118°17'0 0.0
2014-Apr-04 00:17N 33°46' W 118°17'0 0.0
2014-Apr-03 23:29N 33°46' W 118°17'0 0.0
2014-Apr-03 22:32N 33°46' W 118°17'0 0.0
2014-Apr-03 21:32N 33°46' W 118°17'0 0.0
2014-Apr-03 20:32N 33°46' W 118°17'24 0.7
2014-Apr-02 09:04N 33°23' W 118°05'510.3
2014-Apr-02 08:33N 33°18' W 118°05'1211.6
2014-Apr-02 07:33N 33°13' W 118°17'1211.8
2014-Apr-02 06:32N 33°08' W 118°31'3215.3
2014-Apr-02 04:25N 32°54' W 119°05'  

Dump ship's entire track history

sailing weather and tide predictions

YM Kaohsiung — MCGF6 — position and weather